Oberlin, Ohio
Current Conditions -  °F | °C
As of 4:53 PM on Friday 28 Nov 2014 (Local Time) from KLPR Reporting Station
Overcast Overcast  
Wind Chill: 19°   Ceiling: 6000
Heat Index: 27°   Visibility: 10mi
Dew Point: 18°   Wind: 7mph
Humidity: 69%   Direction: 210°SSW
Pressure: 30.22"   Gusts: NA
Location:  41.29°N, 82.22°W
Report Text: KLPR 282153Z AUTO 21006KT 10SM BKN060 BKN070 OVC090 M03/M08 A3022 RMK AO2 SLP243 T10281078 TSNO
Loading
Personal Weather Stations






























Interactive Weather Map New forecast layout! Learn more

10-Day Weather Forecast

Advertisements
Track Severe Weather on mobile